HK36E KMIA-KJAX
Flight info
| Callsign | HK36E |
|---|---|
| Flight time | 1h 23m |
| Altitude | 28000 |
| Route | ALTNN2 DUCEN QUBEN2 |
| Aircraft | BE20/M-SDFGRWY/LB1 |
Departure
| Time | 2026-05-08 02:04 |
|---|---|
| Airport | Miami International Airport (KMIA) |
Arrival
| Time | 2026-05-08 03:27 |
|---|---|
| Airport | Jacksonville International Airport (KJAX) |
| Time | Latitude | Longitude | Altitude | Speed | Heading |
|---|---|---|---|---|---|
| 2026-05-08 01:52 | 25.80566 | -80.29055 | 15 ft | 0 kts | 178° |
| 2026-05-08 01:59 | 25.80526 | -80.29055 | 15 ft | 11 kts | 179° |
| 2026-05-08 01:59 | 25.80470 | -80.29055 | 14 ft | 6 kts | 185° |
| 2026-05-08 01:59 | 25.80444 | -80.29104 | 15 ft | 11 kts | 268° |
| 2026-05-08 02:00 | 25.80439 | -80.29213 | 17 ft | 16 kts | 266° |
| 2026-05-08 02:00 | 25.80434 | -80.29353 | 16 ft | 16 kts | 268° |
| 2026-05-08 02:00 | 25.80429 | -80.29488 | 16 ft | 20 kts | 268° |
| 2026-05-08 02:00 | 25.80422 | -80.29632 | 18 ft | 17 kts | 265° |
| 2026-05-08 02:01 | 25.80418 | -80.29717 | 19 ft | 11 kts | 267° |
| 2026-05-08 02:01 | 25.80414 | -80.29828 | 18 ft | 19 kts | 268° |
| 2026-05-08 02:01 | 25.80411 | -80.29939 | 16 ft | 13 kts | 269° |
| 2026-05-08 02:01 | 25.80407 | -80.30033 | 16 ft | 11 kts | 259° |
| 2026-05-08 02:02 | 25.80394 | -80.30051 | 16 ft | 0 kts | 210° |
| 2026-05-08 02:02 | 25.80362 | -80.30065 | 16 ft | 10 kts | 182° |
| 2026-05-08 02:02 | 25.80292 | -80.30038 | 16 ft | 9 kts | 91° |
| 2026-05-08 02:03 | 25.80300 | -80.29898 | 16 ft | 41 kts | 87° |
| 2026-05-08 02:03 | 25.80315 | -80.29417 | 19 ft | 85 kts | 88° |
| 2026-05-08 02:03 | 25.80358 | -80.28633 | 206 ft | 114 kts | 93° |
| 2026-05-08 02:03 | 25.80408 | -80.27674 | 567 ft | 134 kts | 89° |
| 2026-05-08 02:04 | 25.80500 | -80.26565 | 1017 ft | 149 kts | 90° |
| 2026-05-08 02:04 | 25.80583 | -80.25359 | 1393 ft | 169 kts | 94° |
| 2026-05-08 02:04 | 25.80521 | -80.24083 | 2040 ft | 162 kts | 96° |
| 2026-05-08 02:04 | 25.80514 | -80.22824 | 2544 ft | 168 kts | 91° |
| 2026-05-08 02:05 | 25.80536 | -80.21500 | 2928 ft | 172 kts | 90° |
| 2026-05-08 02:05 | 25.80564 | -80.20186 | 3441 ft | 172 kts | 89° |
| 2026-05-08 02:05 | 25.80593 | -80.18857 | 3927 ft | 171 kts | 87° |
| 2026-05-08 02:05 | 25.80872 | -80.17593 | 4377 ft | 169 kts | 59° |
| 2026-05-08 02:06 | 25.81600 | -80.16601 | 4853 ft | 165 kts | 32° |
| 2026-05-08 02:06 | 25.82608 | -80.16055 | 5253 ft | 166 kts | 9° |
| 2026-05-08 02:06 | 25.83762 | -80.15954 | 5631 ft | 169 kts | 359° |
| 2026-05-08 02:06 | 25.84933 | -80.15904 | 6194 ft | 163 kts | 0° |
| 2026-05-08 02:07 | 25.86069 | -80.15859 | 6665 ft | 166 kts | 1° |
| 2026-05-08 02:07 | 25.87229 | -80.15815 | 7107 ft | 167 kts | 1° |
| 2026-05-08 02:07 | 25.88398 | -80.15771 | 7563 ft | 168 kts | 1° |
| 2026-05-08 02:07 | 25.89572 | -80.15795 | 8001 ft | 170 kts | 346° |
| 2026-05-08 02:08 | 25.90699 | -80.16194 | 8429 ft | 172 kts | 343° |
| 2026-05-08 02:08 | 25.91844 | -80.16584 | 8899 ft | 173 kts | 343° |
| 2026-05-08 02:08 | 25.93015 | -80.16990 | 9286 ft | 180 kts | 342° |
| 2026-05-08 02:08 | 25.94230 | -80.17412 | 9672 ft | 185 kts | 342° |
| 2026-05-08 02:09 | 25.95472 | -80.17844 | 10040 ft | 189 kts | 342° |
| 2026-05-08 02:09 | 25.96734 | -80.18284 | 10388 ft | 192 kts | 342° |
| 2026-05-08 02:09 | 25.98016 | -80.18731 | 10740 ft | 194 kts | 341° |
| 2026-05-08 02:09 | 25.99328 | -80.19078 | 11092 ft | 194 kts | 354° |
| 2026-05-08 02:10 | 26.00680 | -80.19201 | 11450 ft | 196 kts | 353° |
| 2026-05-08 02:10 | 26.02043 | -80.19344 | 11809 ft | 198 kts | 354° |
| 2026-05-08 02:10 | 26.03427 | -80.19489 | 12180 ft | 200 kts | 353° |
| 2026-05-08 02:10 | 26.04795 | -80.19630 | 12541 ft | 202 kts | 352° |
| 2026-05-08 02:11 | 26.06211 | -80.19775 | 12911 ft | 205 kts | 353° |
| 2026-05-08 02:11 | 26.07639 | -80.19923 | 13295 ft | 206 kts | 353° |
| 2026-05-08 02:11 | 26.09068 | -80.20071 | 13676 ft | 206 kts | 351° |
| 2026-05-08 02:11 | 26.10499 | -80.20217 | 14031 ft | 206 kts | 352° |
| 2026-05-08 02:12 | 26.11929 | -80.20364 | 14365 ft | 206 kts | 351° |
| 2026-05-08 02:12 | 26.13355 | -80.20512 | 14707 ft | 206 kts | 352° |
| 2026-05-08 02:12 | 26.14780 | -80.20659 | 15053 ft | 205 kts | 352° |
| 2026-05-08 02:12 | 26.16197 | -80.20805 | 15401 ft | 204 kts | 352° |
| 2026-05-08 02:13 | 26.17608 | -80.20951 | 15752 ft | 203 kts | 352° |
| 2026-05-08 02:13 | 26.19012 | -80.21096 | 16107 ft | 202 kts | 352° |
| 2026-05-08 02:13 | 26.20413 | -80.21237 | 16468 ft | 201 kts | 352° |
| 2026-05-08 02:13 | 26.21806 | -80.21357 | 16831 ft | 200 kts | 352° |
| 2026-05-08 02:14 | 26.23192 | -80.21478 | 17209 ft | 199 kts | 351° |
| 2026-05-08 02:14 | 26.24569 | -80.21600 | 17582 ft | 198 kts | 351° |
| 2026-05-08 02:14 | 26.25935 | -80.21723 | 17958 ft | 196 kts | 350° |
| 2026-05-08 02:14 | 26.27294 | -80.21845 | 18334 ft | 195 kts | 350° |
| 2026-05-08 02:15 | 26.28647 | -80.21967 | 18667 ft | 197 kts | 349° |
| 2026-05-08 02:15 | 26.30011 | -80.22091 | 19002 ft | 201 kts | 349° |
| 2026-05-08 02:15 | 26.31417 | -80.22216 | 19356 ft | 204 kts | 349° |
| 2026-05-08 02:15 | 26.32840 | -80.22344 | 19708 ft | 206 kts | 349° |
| 2026-05-08 02:16 | 26.34278 | -80.22472 | 20064 ft | 208 kts | 349° |
| 2026-05-08 02:16 | 26.35729 | -80.22602 | 20415 ft | 210 kts | 348° |
| 2026-05-08 02:16 | 26.37189 | -80.22733 | 20774 ft | 210 kts | 348° |
| 2026-05-08 02:16 | 26.38650 | -80.22869 | 21136 ft | 211 kts | 347° |
| 2026-05-08 02:17 | 26.40109 | -80.23023 | 21497 ft | 211 kts | 347° |
| 2026-05-08 02:17 | 26.41570 | -80.23177 | 21867 ft | 212 kts | 347° |
| 2026-05-08 02:17 | 26.43041 | -80.23329 | 22242 ft | 213 kts | 347° |
| 2026-05-08 02:17 | 26.44520 | -80.23480 | 22621 ft | 214 kts | 346° |
| 2026-05-08 02:18 | 26.46002 | -80.23632 | 23006 ft | 214 kts | 346° |
| 2026-05-08 02:18 | 26.47484 | -80.23784 | 23395 ft | 214 kts | 346° |
| 2026-05-08 02:18 | 26.48963 | -80.23936 | 23750 ft | 213 kts | 346° |
| 2026-05-08 02:18 | 26.50437 | -80.24087 | 24073 ft | 212 kts | 346° |
| 2026-05-08 02:19 | 26.51904 | -80.24238 | 24404 ft | 211 kts | 346° |
| 2026-05-08 02:19 | 26.53363 | -80.24388 | 24734 ft | 210 kts | 345° |
| 2026-05-08 02:19 | 26.54812 | -80.24537 | 25083 ft | 208 kts | 345° |
| 2026-05-08 02:19 | 26.56249 | -80.24689 | 25414 ft | 205 kts | 342° |
| 2026-05-08 02:20 | 26.57637 | -80.24932 | 25756 ft | 201 kts | 341° |
| 2026-05-08 02:20 | 26.59002 | -80.25152 | 26093 ft | 200 kts | 341° |
| 2026-05-08 02:20 | 26.60367 | -80.25373 | 26436 ft | 197 kts | 341° |
| 2026-05-08 02:20 | 26.61721 | -80.25598 | 26784 ft | 195 kts | 341° |
| 2026-05-08 02:21 | 26.63054 | -80.25820 | 27129 ft | 192 kts | 341° |
| 2026-05-08 02:21 | 26.64370 | -80.26038 | 27488 ft | 189 kts | 341° |
| 2026-05-08 02:21 | 26.65662 | -80.26253 | 27845 ft | 186 kts | 341° |
| 2026-05-08 02:21 | 26.66957 | -80.26473 | 28011 ft | 194 kts | 341° |
| 2026-05-08 02:22 | 26.68343 | -80.26711 | 28031 ft | 208 kts | 341° |
| 2026-05-08 02:22 | 26.69818 | -80.26957 | 28036 ft | 221 kts | 342° |
| 2026-05-08 02:22 | 26.71316 | -80.27354 | 28040 ft | 221 kts | 330° |
| 2026-05-08 02:22 | 26.72781 | -80.27979 | 28017 ft | 230 kts | 332° |
| 2026-05-08 02:23 | 26.74306 | -80.28612 | 28016 ft | 237 kts | 332° |
| 2026-05-08 02:23 | 26.75872 | -80.29262 | 28015 ft | 242 kts | 332° |
| 2026-05-08 02:23 | 26.77464 | -80.29927 | 28014 ft | 246 kts | 332° |
| 2026-05-08 02:23 | 26.79084 | -80.30604 | 28014 ft | 250 kts | 332° |
| 2026-05-08 02:24 | 26.80692 | -80.31277 | 28013 ft | 252 kts | 332° |
| 2026-05-08 02:24 | 26.82345 | -80.31968 | 28006 ft | 254 kts | 332° |
| 2026-05-08 02:24 | 26.84004 | -80.32661 | 28003 ft | 255 kts | 332° |
| 2026-05-08 02:24 | 26.85673 | -80.33360 | 28006 ft | 256 kts | 332° |
| 2026-05-08 02:25 | 26.87343 | -80.34059 | 28009 ft | 257 kts | 332° |
| 2026-05-08 02:25 | 26.89019 | -80.34761 | 28009 ft | 257 kts | 332° |
| 2026-05-08 02:25 | 26.90692 | -80.35462 | 28008 ft | 257 kts | 332° |
| 2026-05-08 02:25 | 26.92368 | -80.36164 | 28007 ft | 257 kts | 332° |
| 2026-05-08 02:26 | 26.94046 | -80.36868 | 28007 ft | 257 kts | 332° |
| 2026-05-08 02:26 | 26.95733 | -80.37557 | 28008 ft | 258 kts | 333° |
| 2026-05-08 02:26 | 26.97428 | -80.38230 | 28009 ft | 258 kts | 333° |
| 2026-05-08 02:26 | 26.99120 | -80.38908 | 28010 ft | 258 kts | 333° |
| 2026-05-08 02:27 | 27.00807 | -80.39590 | 28011 ft | 258 kts | 332° |
| 2026-05-08 02:27 | 27.02496 | -80.40273 | 28011 ft | 258 kts | 333° |
| 2026-05-08 02:27 | 27.04186 | -80.40954 | 28010 ft | 258 kts | 333° |
| 2026-05-08 02:27 | 27.05855 | -80.41628 | 28010 ft | 258 kts | 333° |
| 2026-05-08 02:28 | 27.07548 | -80.42311 | 28011 ft | 258 kts | 333° |
| 2026-05-08 02:28 | 27.09238 | -80.43000 | 28010 ft | 257 kts | 330° |
| 2026-05-08 02:28 | 27.10888 | -80.43749 | 28010 ft | 256 kts | 331° |
| 2026-05-08 02:28 | 27.12552 | -80.44468 | 28010 ft | 257 kts | 331° |
| 2026-05-08 02:29 | 27.14218 | -80.45191 | 28011 ft | 257 kts | 331° |
| 2026-05-08 02:29 | 27.15880 | -80.45927 | 28005 ft | 257 kts | 330° |
| 2026-05-08 02:29 | 27.17546 | -80.46665 | 28004 ft | 257 kts | 330° |
| 2026-05-08 02:29 | 27.19212 | -80.47400 | 28004 ft | 258 kts | 330° |
| 2026-05-08 02:30 | 27.20884 | -80.48138 | 28004 ft | 258 kts | 330° |
| 2026-05-08 02:30 | 27.22553 | -80.48875 | 28004 ft | 258 kts | 330° |
| 2026-05-08 02:30 | 27.24222 | -80.49613 | 28003 ft | 258 kts | 330° |
| 2026-05-08 02:30 | 27.25893 | -80.50352 | 28003 ft | 258 kts | 330° |
| 2026-05-08 02:31 | 27.27564 | -80.51091 | 28001 ft | 258 kts | 330° |
| 2026-05-08 02:31 | 27.29232 | -80.51829 | 28000 ft | 258 kts | 330° |
| 2026-05-08 02:31 | 27.30905 | -80.52569 | 27999 ft | 258 kts | 330° |
| 2026-05-08 02:31 | 27.32575 | -80.53309 | 27998 ft | 258 kts | 330° |
| 2026-05-08 02:32 | 27.34245 | -80.54048 | 27994 ft | 258 kts | 330° |
| 2026-05-08 02:32 | 27.35898 | -80.54780 | 27992 ft | 259 kts | 330° |
| 2026-05-08 02:32 | 27.37594 | -80.55466 | 27990 ft | 259 kts | 333° |
| 2026-05-08 02:32 | 27.39293 | -80.56141 | 27990 ft | 259 kts | 332° |
| 2026-05-08 02:33 | 27.40990 | -80.56830 | 27988 ft | 259 kts | 332° |
| 2026-05-08 02:33 | 27.42694 | -80.57510 | 28003 ft | 260 kts | 333° |
| 2026-05-08 02:33 | 27.44402 | -80.58185 | 28004 ft | 260 kts | 333° |
| 2026-05-08 02:33 | 27.46109 | -80.58862 | 28004 ft | 260 kts | 332° |
| 2026-05-08 02:34 | 27.47818 | -80.59541 | 28004 ft | 260 kts | 332° |
| 2026-05-08 02:34 | 27.49529 | -80.60222 | 28004 ft | 260 kts | 332° |
| 2026-05-08 02:34 | 27.50660 | -80.60673 | 28004 ft | 261 kts | 332° |
| 2026-05-08 02:34 | 27.52370 | -80.61353 | 28005 ft | 261 kts | 332° |
| 2026-05-08 02:35 | 27.54081 | -80.62034 | 28005 ft | 261 kts | 332° |
| 2026-05-08 02:35 | 27.55791 | -80.62714 | 27991 ft | 261 kts | 332° |
| 2026-05-08 02:35 | 27.57500 | -80.63395 | 27991 ft | 261 kts | 332° |
| 2026-05-08 02:35 | 27.59212 | -80.64077 | 27992 ft | 261 kts | 332° |
| 2026-05-08 02:36 | 27.60925 | -80.64760 | 27992 ft | 261 kts | 332° |
| 2026-05-08 02:36 | 27.62634 | -80.65441 | 27992 ft | 261 kts | 332° |
| 2026-05-08 02:36 | 27.64347 | -80.66124 | 27992 ft | 261 kts | 332° |
| 2026-05-08 02:36 | 27.66055 | -80.66806 | 27992 ft | 261 kts | 332° |
| 2026-05-08 02:37 | 27.67768 | -80.67489 | 27993 ft | 261 kts | 332° |
| 2026-05-08 02:37 | 27.69482 | -80.68174 | 27992 ft | 261 kts | 332° |
| 2026-05-08 02:37 | 27.71195 | -80.68858 | 27992 ft | 261 kts | 332° |
| 2026-05-08 02:37 | 27.72906 | -80.69541 | 27992 ft | 261 kts | 332° |
| 2026-05-08 02:38 | 27.74617 | -80.70225 | 27992 ft | 261 kts | 332° |
| 2026-05-08 02:38 | 27.76304 | -80.70899 | 27987 ft | 262 kts | 332° |
| 2026-05-08 02:38 | 27.78023 | -80.71586 | 27990 ft | 262 kts | 332° |
| 2026-05-08 02:38 | 27.79738 | -80.72272 | 27990 ft | 261 kts | 332° |
| 2026-05-08 02:39 | 27.81474 | -80.72967 | 27990 ft | 261 kts | 332° |
| 2026-05-08 02:39 | 27.83188 | -80.73653 | 27992 ft | 261 kts | 332° |
| 2026-05-08 02:39 | 27.84898 | -80.74338 | 27992 ft | 261 kts | 332° |
| 2026-05-08 02:39 | 27.86593 | -80.75016 | 27992 ft | 261 kts | 332° |
| 2026-05-08 02:40 | 27.88308 | -80.75704 | 27991 ft | 261 kts | 332° |
| 2026-05-08 02:40 | 27.90025 | -80.76392 | 27992 ft | 261 kts | 332° |
| 2026-05-08 02:40 | 27.91737 | -80.77078 | 27992 ft | 261 kts | 332° |
| 2026-05-08 02:40 | 27.93454 | -80.77767 | 27992 ft | 261 kts | 332° |
| 2026-05-08 02:41 | 27.95168 | -80.78455 | 27993 ft | 261 kts | 332° |
| 2026-05-08 02:41 | 27.96880 | -80.79142 | 27992 ft | 261 kts | 332° |
| 2026-05-08 02:41 | 27.98592 | -80.79829 | 27993 ft | 261 kts | 332° |
| 2026-05-08 02:41 | 28.00306 | -80.80517 | 27994 ft | 261 kts | 332° |
| 2026-05-08 02:42 | 28.02019 | -80.81206 | 27993 ft | 261 kts | 332° |
| 2026-05-08 02:42 | 28.03733 | -80.81895 | 27992 ft | 261 kts | 332° |
| 2026-05-08 02:42 | 28.05448 | -80.82584 | 27993 ft | 261 kts | 332° |
| 2026-05-08 02:42 | 28.07160 | -80.83272 | 27988 ft | 262 kts | 331° |
| 2026-05-08 02:43 | 28.08877 | -80.83963 | 27991 ft | 262 kts | 331° |
| 2026-05-08 02:43 | 28.10570 | -80.84644 | 27997 ft | 262 kts | 331° |
| 2026-05-08 02:43 | 28.12285 | -80.85334 | 27997 ft | 261 kts | 331° |
| 2026-05-08 02:43 | 28.13997 | -80.86024 | 27992 ft | 261 kts | 331° |
| 2026-05-08 02:44 | 28.15710 | -80.86714 | 27987 ft | 261 kts | 331° |
| 2026-05-08 02:44 | 28.17424 | -80.87405 | 27990 ft | 261 kts | 331° |
| 2026-05-08 02:44 | 28.19136 | -80.88095 | 27991 ft | 261 kts | 331° |
| 2026-05-08 02:44 | 28.20848 | -80.88786 | 27991 ft | 261 kts | 331° |
| 2026-05-08 02:45 | 28.22561 | -80.89476 | 27992 ft | 261 kts | 331° |
| 2026-05-08 02:45 | 28.24272 | -80.90167 | 27988 ft | 261 kts | 331° |
| 2026-05-08 02:45 | 28.25984 | -80.90858 | 27985 ft | 261 kts | 331° |
| 2026-05-08 02:45 | 28.27699 | -80.91550 | 27992 ft | 261 kts | 331° |
| 2026-05-08 02:46 | 28.29413 | -80.92243 | 27990 ft | 261 kts | 331° |
| 2026-05-08 02:46 | 28.31127 | -80.92935 | 27989 ft | 261 kts | 331° |
| 2026-05-08 02:46 | 28.32839 | -80.93627 | 27988 ft | 261 kts | 331° |
| 2026-05-08 02:46 | 28.34550 | -80.94320 | 27987 ft | 261 kts | 331° |
| 2026-05-08 02:47 | 28.36263 | -80.95012 | 27988 ft | 261 kts | 331° |
| 2026-05-08 02:47 | 28.37979 | -80.95707 | 27991 ft | 262 kts | 330° |
| 2026-05-08 02:47 | 28.39693 | -80.96401 | 27992 ft | 262 kts | 330° |
| 2026-05-08 02:47 | 28.41408 | -80.97095 | 27993 ft | 261 kts | 330° |
| 2026-05-08 02:48 | 28.43124 | -80.97790 | 27993 ft | 261 kts | 330° |
| 2026-05-08 02:48 | 28.44836 | -80.98484 | 27992 ft | 261 kts | 330° |
| 2026-05-08 02:48 | 28.46548 | -80.99177 | 27992 ft | 261 kts | 330° |
| 2026-05-08 02:48 | 28.48261 | -80.99872 | 27992 ft | 261 kts | 330° |
| 2026-05-08 02:49 | 28.49950 | -81.00557 | 27991 ft | 261 kts | 330° |
| 2026-05-08 02:49 | 28.51662 | -81.01252 | 27978 ft | 261 kts | 330° |
| 2026-05-08 02:49 | 28.53374 | -81.01946 | 27978 ft | 261 kts | 330° |
| 2026-05-08 02:49 | 28.55087 | -81.02642 | 27978 ft | 261 kts | 330° |
| 2026-05-08 02:50 | 28.56796 | -81.03337 | 27978 ft | 261 kts | 330° |
| 2026-05-08 02:50 | 28.58513 | -81.04034 | 27978 ft | 261 kts | 330° |
| 2026-05-08 02:50 | 28.60224 | -81.04729 | 27978 ft | 261 kts | 330° |
| 2026-05-08 02:50 | 28.61936 | -81.05425 | 27975 ft | 261 kts | 330° |
| 2026-05-08 02:51 | 28.63646 | -81.06121 | 27984 ft | 261 kts | 330° |
| 2026-05-08 02:51 | 28.65358 | -81.06817 | 27981 ft | 261 kts | 330° |
| 2026-05-08 02:51 | 28.67073 | -81.07516 | 27983 ft | 262 kts | 330° |
| 2026-05-08 02:51 | 28.68789 | -81.08214 | 27984 ft | 261 kts | 330° |
| 2026-05-08 02:52 | 28.70501 | -81.08911 | 27984 ft | 261 kts | 330° |
| 2026-05-08 02:52 | 28.72190 | -81.09599 | 27984 ft | 261 kts | 330° |
| 2026-05-08 02:52 | 28.73919 | -81.10304 | 27976 ft | 261 kts | 330° |
| 2026-05-08 02:52 | 28.75604 | -81.10991 | 27975 ft | 260 kts | 330° |
| 2026-05-08 02:53 | 28.77310 | -81.11687 | 27975 ft | 260 kts | 330° |
| 2026-05-08 02:53 | 28.79017 | -81.12384 | 27977 ft | 260 kts | 330° |
| 2026-05-08 02:53 | 28.80721 | -81.13079 | 27977 ft | 260 kts | 330° |
| 2026-05-08 02:53 | 28.82427 | -81.13776 | 27977 ft | 260 kts | 330° |
| 2026-05-08 02:54 | 28.84134 | -81.14473 | 27986 ft | 260 kts | 330° |
| 2026-05-08 02:54 | 28.85838 | -81.15169 | 27988 ft | 260 kts | 330° |
| 2026-05-08 02:54 | 28.87546 | -81.15867 | 27990 ft | 260 kts | 330° |
| 2026-05-08 02:54 | 28.89251 | -81.16565 | 27992 ft | 260 kts | 330° |
| 2026-05-08 02:55 | 28.90956 | -81.17262 | 27993 ft | 260 kts | 330° |
| 2026-05-08 02:55 | 28.94345 | -81.18649 | 27998 ft | 260 kts | 330° |
| 2026-05-08 02:55 | 28.96052 | -81.19348 | 28021 ft | 260 kts | 329° |
| 2026-05-08 02:56 | 28.97759 | -81.20047 | 28002 ft | 261 kts | 329° |
| 2026-05-08 02:56 | 28.99464 | -81.20745 | 28005 ft | 260 kts | 329° |
| 2026-05-08 02:56 | 29.01166 | -81.21443 | 28006 ft | 260 kts | 329° |
| 2026-05-08 02:56 | 29.02863 | -81.22139 | 28006 ft | 259 kts | 329° |
| 2026-05-08 02:57 | 29.04562 | -81.22835 | 28004 ft | 259 kts | 329° |
| 2026-05-08 02:57 | 29.06256 | -81.23530 | 28004 ft | 259 kts | 329° |
| 2026-05-08 02:57 | 29.07956 | -81.24228 | 28004 ft | 259 kts | 329° |
| 2026-05-08 02:57 | 29.09650 | -81.24924 | 27937 ft | 261 kts | 329° |
| 2026-05-08 02:58 | 29.11383 | -81.25641 | 27556 ft | 267 kts | 329° |
| 2026-05-08 02:58 | 29.13149 | -81.26365 | 27193 ft | 271 kts | 330° |
| 2026-05-08 02:58 | 29.14929 | -81.27094 | 26834 ft | 273 kts | 330° |
| 2026-05-08 02:58 | 29.16722 | -81.27830 | 26479 ft | 275 kts | 330° |
| 2026-05-08 02:59 | 29.18528 | -81.28574 | 26128 ft | 276 kts | 330° |
| 2026-05-08 02:59 | 29.20341 | -81.29320 | 25778 ft | 278 kts | 330° |
| 2026-05-08 02:59 | 29.22155 | -81.30066 | 25432 ft | 276 kts | 330° |
| 2026-05-08 02:59 | 29.23952 | -81.30802 | 25084 ft | 272 kts | 330° |
| 2026-05-08 03:00 | 29.25697 | -81.31521 | 24743 ft | 269 kts | 329° |
| 2026-05-08 03:00 | 29.27447 | -81.32239 | 24400 ft | 266 kts | 331° |
| 2026-05-08 03:00 | 29.29246 | -81.32782 | 24071 ft | 267 kts | 335° |
| 2026-05-08 03:00 | 29.31052 | -81.33281 | 23742 ft | 266 kts | 335° |
| 2026-05-08 03:01 | 29.32849 | -81.33786 | 23386 ft | 265 kts | 335° |
| 2026-05-08 03:01 | 29.34637 | -81.34293 | 22997 ft | 265 kts | 335° |
| 2026-05-08 03:01 | 29.36424 | -81.34799 | 22612 ft | 264 kts | 335° |
| 2026-05-08 03:01 | 29.38210 | -81.35303 | 22231 ft | 264 kts | 336° |
| 2026-05-08 03:02 | 29.39992 | -81.35806 | 21859 ft | 263 kts | 336° |
| 2026-05-08 03:02 | 29.41768 | -81.36308 | 21491 ft | 263 kts | 336° |
| 2026-05-08 03:02 | 29.43546 | -81.36811 | 21125 ft | 263 kts | 336° |
| 2026-05-08 03:02 | 29.45320 | -81.37312 | 20765 ft | 262 kts | 336° |
| 2026-05-08 03:03 | 29.47090 | -81.37813 | 20405 ft | 262 kts | 336° |
| 2026-05-08 03:03 | 29.48855 | -81.38312 | 20050 ft | 259 kts | 336° |
| 2026-05-08 03:03 | 29.50574 | -81.38793 | 19695 ft | 250 kts | 336° |
| 2026-05-08 03:03 | 29.52238 | -81.39263 | 19340 ft | 243 kts | 336° |
| 2026-05-08 03:04 | 29.53862 | -81.39725 | 18990 ft | 238 kts | 336° |
| 2026-05-08 03:04 | 29.55394 | -81.40255 | 18659 ft | 224 kts | 324° |
| 2026-05-08 03:04 | 29.56651 | -81.41203 | 18324 ft | 210 kts | 310° |
| 2026-05-08 03:04 | 29.57661 | -81.42378 | 17941 ft | 203 kts | 307° |
| 2026-05-08 03:05 | 29.58639 | -81.43521 | 17546 ft | 199 kts | 307° |
| 2026-05-08 03:05 | 29.59598 | -81.44640 | 17158 ft | 195 kts | 307° |
| 2026-05-08 03:05 | 29.60540 | -81.45742 | 16779 ft | 192 kts | 307° |
| 2026-05-08 03:05 | 29.61472 | -81.46834 | 16398 ft | 190 kts | 307° |
| 2026-05-08 03:06 | 29.62393 | -81.47914 | 16029 ft | 188 kts | 307° |
| 2026-05-08 03:06 | 29.63308 | -81.48987 | 15662 ft | 187 kts | 307° |
| 2026-05-08 03:06 | 29.64216 | -81.50050 | 15292 ft | 186 kts | 307° |
| 2026-05-08 03:06 | 29.65120 | -81.51111 | 14951 ft | 185 kts | 307° |
| 2026-05-08 03:07 | 29.66021 | -81.52167 | 14600 ft | 186 kts | 307° |
| 2026-05-08 03:07 | 29.66971 | -81.53291 | 14270 ft | 205 kts | 308° |
| 2026-05-08 03:07 | 29.67991 | -81.54490 | 13951 ft | 218 kts | 308° |
| 2026-05-08 03:07 | 29.69080 | -81.55752 | 13603 ft | 226 kts | 309° |
| 2026-05-08 03:08 | 29.70207 | -81.57043 | 13257 ft | 231 kts | 310° |
| 2026-05-08 03:08 | 29.71351 | -81.58358 | 13007 ft | 231 kts | 310° |
| 2026-05-08 03:08 | 29.72465 | -81.59641 | 13009 ft | 223 kts | 309° |
| 2026-05-08 03:08 | 29.73541 | -81.60886 | 13005 ft | 218 kts | 309° |
| 2026-05-08 03:09 | 29.74601 | -81.62113 | 12996 ft | 214 kts | 309° |
| 2026-05-08 03:09 | 29.75649 | -81.63325 | 12991 ft | 213 kts | 309° |
| 2026-05-08 03:09 | 29.76790 | -81.64408 | 12993 ft | 217 kts | 324° |
| 2026-05-08 03:09 | 29.78242 | -81.64972 | 12996 ft | 227 kts | 345° |
| 2026-05-08 03:10 | 29.79819 | -81.65121 | 13002 ft | 228 kts | 347° |
| 2026-05-08 03:10 | 29.81404 | -81.65258 | 13005 ft | 229 kts | 347° |
| 2026-05-08 03:10 | 29.82994 | -81.65401 | 13006 ft | 229 kts | 347° |
| 2026-05-08 03:10 | 29.84585 | -81.65545 | 13007 ft | 230 kts | 347° |
| 2026-05-08 03:11 | 29.86178 | -81.65694 | 13012 ft | 229 kts | 348° |
| 2026-05-08 03:11 | 29.87770 | -81.65833 | 13012 ft | 230 kts | 348° |
| 2026-05-08 03:11 | 29.89363 | -81.65975 | 13011 ft | 230 kts | 348° |
| 2026-05-08 03:11 | 29.90955 | -81.66119 | 13007 ft | 229 kts | 348° |
| 2026-05-08 03:12 | 29.92547 | -81.66264 | 13004 ft | 229 kts | 348° |
| 2026-05-08 03:12 | 29.94131 | -81.66429 | 13003 ft | 226 kts | 345° |
| 2026-05-08 03:12 | 29.95701 | -81.66629 | 13001 ft | 227 kts | 349° |
| 2026-05-08 03:12 | 29.97317 | -81.66427 | 12810 ft | 243 kts | 5° |
| 2026-05-08 03:13 | 29.98943 | -81.65927 | 12451 ft | 244 kts | 9° |
| 2026-05-08 03:13 | 30.00565 | -81.65408 | 12083 ft | 240 kts | 7° |
| 2026-05-08 03:13 | 30.02178 | -81.64949 | 11714 ft | 238 kts | 6° |
| 2026-05-08 03:13 | 30.03783 | -81.64509 | 11355 ft | 236 kts | 6° |
| 2026-05-08 03:14 | 30.05371 | -81.64063 | 11005 ft | 234 kts | 7° |
| 2026-05-08 03:14 | 30.06948 | -81.63614 | 10651 ft | 233 kts | 7° |
| 2026-05-08 03:14 | 30.08521 | -81.63168 | 10296 ft | 232 kts | 7° |
| 2026-05-08 03:14 | 30.10083 | -81.62726 | 9961 ft | 230 kts | 7° |
| 2026-05-08 03:15 | 30.11631 | -81.62288 | 9597 ft | 228 kts | 7° |
| 2026-05-08 03:15 | 30.13169 | -81.61851 | 9226 ft | 227 kts | 7° |
| 2026-05-08 03:15 | 30.14703 | -81.61416 | 8853 ft | 227 kts | 7° |
| 2026-05-08 03:15 | 30.16234 | -81.60982 | 8484 ft | 226 kts | 7° |
| 2026-05-08 03:16 | 30.17734 | -81.60557 | 8128 ft | 225 kts | 7° |
| 2026-05-08 03:16 | 30.19252 | -81.60126 | 7766 ft | 225 kts | 7° |
| 2026-05-08 03:16 | 30.20763 | -81.59696 | 7479 ft | 222 kts | 7° |
| 2026-05-08 03:16 | 30.22261 | -81.59271 | 7195 ft | 221 kts | 7° |
| 2026-05-08 03:17 | 30.23750 | -81.58848 | 6923 ft | 220 kts | 7° |
| 2026-05-08 03:17 | 30.25232 | -81.58428 | 6641 ft | 219 kts | 7° |
| 2026-05-08 03:17 | 30.26707 | -81.58008 | 6362 ft | 218 kts | 7° |
| 2026-05-08 03:17 | 30.28169 | -81.57592 | 5990 ft | 214 kts | 7° |
| 2026-05-08 03:18 | 30.29602 | -81.57183 | 5616 ft | 210 kts | 7° |
| 2026-05-08 03:18 | 30.31009 | -81.56783 | 5248 ft | 207 kts | 7° |
| 2026-05-08 03:18 | 30.32396 | -81.56389 | 4866 ft | 204 kts | 7° |
| 2026-05-08 03:18 | 30.33764 | -81.56000 | 4509 ft | 202 kts | 7° |
| 2026-05-08 03:19 | 30.35122 | -81.55614 | 4137 ft | 200 kts | 7° |
| 2026-05-08 03:19 | 30.36474 | -81.55229 | 3768 ft | 199 kts | 8° |
| 2026-05-08 03:19 | 30.37817 | -81.54846 | 3409 ft | 198 kts | 8° |
| 2026-05-08 03:19 | 30.39152 | -81.54466 | 3043 ft | 198 kts | 8° |
| 2026-05-08 03:20 | 30.40488 | -81.54085 | 2678 ft | 197 kts | 9° |
| 2026-05-08 03:20 | 30.41822 | -81.53705 | 2311 ft | 197 kts | 9° |
| 2026-05-08 03:20 | 30.43132 | -81.53331 | 2013 ft | 193 kts | 8° |
| 2026-05-08 03:20 | 30.44381 | -81.52969 | 1984 ft | 174 kts | 7° |
| 2026-05-08 03:21 | 30.45509 | -81.52646 | 1984 ft | 162 kts | 6° |
| 2026-05-08 03:21 | 30.46634 | -81.52335 | 1999 ft | 181 kts | 7° |
| 2026-05-08 03:21 | 30.47909 | -81.51977 | 2005 ft | 195 kts | 8° |
| 2026-05-08 03:21 | 30.49220 | -81.51596 | 2003 ft | 188 kts | 8° |
| 2026-05-08 03:22 | 30.50448 | -81.51238 | 2013 ft | 176 kts | 7° |
| 2026-05-08 03:22 | 30.51606 | -81.51028 | 2005 ft | 158 kts | 349° |
| 2026-05-08 03:22 | 30.52603 | -81.51273 | 2007 ft | 140 kts | 329° |
| 2026-05-08 03:22 | 30.53391 | -81.51858 | 2005 ft | 131 kts | 310° |
| 2026-05-08 03:23 | 30.53942 | -81.52671 | 1978 ft | 129 kts | 293° |
| 2026-05-08 03:23 | 30.54243 | -81.53683 | 1746 ft | 136 kts | 276° |
| 2026-05-08 03:23 | 30.54216 | -81.54783 | 1514 ft | 139 kts | 253° |
| 2026-05-08 03:23 | 30.53906 | -81.55848 | 1342 ft | 138 kts | 252° |
| 2026-05-08 03:24 | 30.53603 | -81.56899 | 1308 ft | 136 kts | 251° |
| 2026-05-08 03:24 | 30.53300 | -81.57896 | 1276 ft | 127 kts | 251° |
| 2026-05-08 03:24 | 30.53014 | -81.58835 | 1239 ft | 120 kts | 251° |
| 2026-05-08 03:24 | 30.52738 | -81.59744 | 1194 ft | 119 kts | 250° |
| 2026-05-08 03:25 | 30.52557 | -81.60338 | 1169 ft | 117 kts | 250° |
| 2026-05-08 03:25 | 30.52276 | -81.61266 | 1027 ft | 126 kts | 250° |
| 2026-05-08 03:25 | 30.52006 | -81.62154 | 886 ft | 107 kts | 251° |
| 2026-05-08 03:25 | 30.51763 | -81.62953 | 762 ft | 106 kts | 253° |
| 2026-05-08 03:26 | 30.51520 | -81.63747 | 635 ft | 105 kts | 250° |
| 2026-05-08 03:26 | 30.51268 | -81.64576 | 498 ft | 110 kts | 251° |
| 2026-05-08 03:26 | 30.51016 | -81.65384 | 367 ft | 102 kts | 253° |
| 2026-05-08 03:26 | 30.50782 | -81.66166 | 202 ft | 103 kts | 252° |
| 2026-05-08 03:27 | 30.50545 | -81.66966 | 75 ft | 106 kts | 252° |
| 2026-05-08 03:27 | 30.50327 | -81.67699 | 31 ft | 80 kts | 251° |
| 2026-05-08 03:27 | 30.50227 | -81.68047 | 35 ft | 33 kts | 249° |
| 2026-05-08 03:27 | 30.50184 | -81.68118 | 34 ft | 10 kts | 131° |
| 2026-05-08 03:28 | 30.50129 | -81.68038 | 34 ft | 8 kts | 123° |
| 2026-05-08 03:28 | 30.50099 | -81.68004 | 34 ft | 1 kts | 159° |
| 2026-05-08 03:28 | 30.50050 | -81.67983 | 34 ft | 14 kts | 160° |
| 2026-05-08 03:28 | 30.49942 | -81.67941 | 32 ft | 18 kts | 161° |
| 2026-05-08 03:29 | 30.49887 | -81.67919 | 31 ft | 3 kts | 160° |
| 2026-05-08 03:29 | 30.49830 | -81.67897 | 32 ft | 14 kts | 165° |
| 2026-05-08 03:29 | 30.49737 | -81.67907 | 32 ft | 11 kts | 193° |
| 2026-05-08 03:29 | 30.49669 | -81.67911 | 32 ft | 7 kts | 141° |
| 2026-05-08 03:30 | 30.49653 | -81.67804 | 34 ft | 0 kts | 13° |